Time;durP1;ratioP1;P1;durP2;ratioP2;P2;SDS_P1;SDS_P2;PMS_P1;PMS_P2;Temp;Humidity;BMP_temperature;BMP_pressure;BME280_temperature;BME280_humidity;BME280_pressure;Samples;Min_cycle;Max_cycle;Signal;HPM_P1;HPM_P2
2022/11/27 00:01:15;;;;;;;1999.90;999.90;;;;;;;1.24;100.00;99278.47;5050350;28;20497;-79
2022/11/27 00:03:42;;;;;;;1999.90;999.90;;;;;;;1.21;100.00;99278.88;5050129;28;20013;-78
2022/11/27 00:06:11;;;;;;;1999.90;999.90;;;;;;;1.10;100.00;99284.84;5052233;28;20045;-84
2022/11/27 00:08:40;;;;;;;1999.90;999.90;;;;;;;1.04;100.00;99276.53;5052244;28;20027;-82
2022/11/27 00:11:11;;;;;;;1999.90;999.90;;;;;;;1.08;100.00;99275.09;5050337;28;20025;-81
2022/11/27 00:13:38;;;;;;;1999.90;999.90;;;;;;;1.20;100.00;99288.81;5052189;28;20021;-85
2022/11/27 00:16:04;;;;;;;1999.90;999.90;;;;;;;1.22;100.00;99280.53;5053335;28;20021;-85
2022/11/27 00:18:30;;;;;;;1999.90;999.90;;;;;;;1.20;100.00;99279.88;5049784;28;20363;-84
2022/11/27 00:21:00;;;;;;;1999.90;999.90;;;;;;;1.22;100.00;99285.94;5042700;28;20049;-83
2022/11/27 00:23:25;;;;;;;1999.90;999.90;;;;;;;1.11;100.00;99292.72;5043911;28;20487;-80
2022/11/27 00:25:52;;;;;;;1999.90;999.90;;;;;;;1.17;100.00;99288.38;5047127;28;20039;-81
2022/11/27 00:28:18;;;;;;;1999.90;999.90;;;;;;;1.08;100.00;99283.19;5041556;28;20044;-81
2022/11/27 00:30:43;;;;;;;1999.90;999.90;;;;;;;1.05;100.00;99291.66;5037785;28;20025;-83
2022/11/27 00:33:09;;;;;;;1999.90;999.90;;;;;;;0.98;100.00;99281.88;5052271;28;20486;-82
2022/11/27 00:35:34;;;;;;;1999.90;999.90;;;;;;;1.10;100.00;99282.16;5052486;28;20487;-84
2022/11/27 00:37:59;;;;;;;1999.90;999.90;;;;;;;1.05;100.00;99282.75;5052765;28;20021;-83
2022/11/27 00:40:25;;;;;;;1999.90;999.90;;;;;;;1.08;100.00;99291.25;5051644;28;20033;-82
2022/11/27 00:42:50;;;;;;;1999.90;999.90;;;;;;;1.19;100.00;99283.63;5051436;28;20017;-82
2022/11/27 00:45:15;;;;;;;1999.90;999.90;;;;;;;1.19;100.00;99286.34;5052711;28;20163;-84
2022/11/27 00:47:41;;;;;;;1999.90;999.90;;;;;;;1.21;100.00;99285.09;5052959;28;20120;-83
2022/11/27 00:50:07;;;;;;;1999.90;999.90;;;;;;;1.23;100.00;99291.09;5057294;28;20028;-81
2022/11/27 00:52:32;;;;;;;1999.90;999.90;;;;;;;1.28;100.00;99290.50;5072091;28;20154;-83
2022/11/27 00:54:57;;;;;;;1999.90;999.90;;;;;;;1.17;100.00;99283.81;5064423;28;20048;-81
2022/11/27 00:57:24;;;;;;;1999.90;999.90;;;;;;;1.22;100.00;99291.31;5058376;28;20111;-85
2022/11/27 00:59:50;;;;;;;1999.90;999.90;;;;;;;1.23;100.00;99287.56;5062090;28;20025;-84
2022/11/27 01:02:15;;;;;;;1999.90;999.90;;;;;;;1.28;100.00;99290.50;5064818;28;20033;-85
2022/11/27 01:04:43;;;;;;;1999.90;999.90;;;;;;;1.31;100.00;99295.47;5061496;28;20098;-83
2022/11/27 01:07:08;;;;;;;1999.90;999.90;;;;;;;1.23;100.00;99290.25;5060235;28;20033;-86
2022/11/27 01:09:34;;;;;;;1999.90;999.90;;;;;;;1.21;100.00;99285.09;5059634;28;20394;-84
2022/11/27 01:11:59;;;;;;;1999.90;999.90;;;;;;;1.28;100.00;99290.50;5061024;28;20539;-84
2022/11/27 01:14:24;;;;;;;1999.90;999.90;;;;;;;1.17;100.00;99288.38;5060220;28;20477;-88
2022/11/27 01:16:50;;;;;;;1999.90;999.90;;;;;;;1.17;100.00;99283.81;5060259;28;20029;-86
2022/11/27 01:19:15;;;;;;;1999.90;999.90;;;;;;;1.20;100.00;99294.19;5061052;28;20036;-86
2022/11/27 01:21:41;;;;;;;1999.90;999.90;;;;;;;1.05;100.00;99288.97;5061732;28;20470;-85
2022/11/27 01:24:07;;;;;;;1999.90;999.90;;;;;;;1.06;100.00;99287.94;5085952;28;20029;-82
2022/11/27 01:26:32;;;;;;;1999.90;999.90;;;;;;;0.94;100.00;99286.84;5052504;28;20143;-81
2022/11/27 01:28:58;;;;;;;1999.90;999.90;;;;;;;1.12;100.00;99280.09;5054853;28;20029;-84
2022/11/27 01:31:27;;;;;;;1999.90;999.90;;;;;;;1.16;100.00;99286.72;5053426;28;20478;-84
2022/11/27 01:33:58;;;;;;;1999.90;999.90;;;;;;;1.08;100.00;99274.25;5054587;28;20021;-88
2022/11/27 01:36:24;;;;;;;1999.90;999.90;;;;;;;1.11;100.00;99295.41;5055582;28;20486;-81
2022/11/27 01:38:49;;;;;;;1999.90;999.90;;;;;;;1.16;100.00;99282.16;5053909;28;20359;-83
2022/11/27 01:41:20;;;;;;;1999.90;999.90;;;;;;;1.06;100.00;99287.94;5051970;28;20036;-79
2022/11/27 01:44:19;;;;;;;1999.90;999.90;;;;;;;1.03;100.00;99291.00;5050151;28;20035;-80
2022/11/27 01:47:04;;;;;;;1999.90;999.90;;;;;;;1.08;100.00;99285.88;5050549;28;20041;-82
2022/11/27 01:49:52;;;;;;;1999.90;999.90;;;;;;;1.04;100.00;99278.38;5049650;28;20409;-81
2022/11/27 01:52:19;;;;;;;1999.90;999.90;;;;;;;1.10;100.00;99287.53;5050917;28;20053;-82
2022/11/27 01:54:53;;;;;;;1999.90;999.90;;;;;;;1.14;100.00;99278.00;5051191;28;20036;-80
2022/11/27 01:57:26;;;;;;;1999.90;999.90;;;;;;;1.20;100.00;99282.59;5050873;28;20116;-81
2022/11/27 01:59:55;;;;;;;1999.90;999.90;;;;;;;1.12;100.00;99266.63;5050481;28;20044;-82
2022/11/27 02:02:20;;;;;;;1999.90;999.90;;;;;;;1.17;100.00;99264.13;5049579;28;20021;-84
2022/11/27 02:04:45;;;;;;;1999.90;999.90;;;;;;;1.25;100.00;99262.09;5053062;28;20052;-83
2022/11/27 02:07:11;;;;;;;1999.90;999.90;;;;;;;1.29;100.00;99262.50;5049732;28;20078;-80
2022/11/27 02:09:37;;;;;;;1999.90;999.90;;;;;;;1.29;100.00;99266.03;5051707;28;20074;-81
2022/11/27 02:12:11;;;;;;;1999.90;999.90;;;;;;;1.16;100.00;99259.78;5050247;28;20251;-81
2022/11/27 02:14:55;;;;;;;1999.90;999.90;;;;;;;1.15;100.00;99263.50;5051699;28;20504;-81
2022/11/27 02:17:26;;;;;;;1999.90;999.90;;;;;;;1.20;100.00;99261.03;5052633;28;20108;-85
2022/11/27 02:20:04;;;;;;;1999.90;999.90;;;;;;;1.15;100.00;99258.97;5050040;28;20064;-82
2022/11/27 02:22:35;;;;;;;1999.90;999.90;;;;;;;1.12;100.00;99261.22;5051505;28;20080;-83
2022/11/27 02:25:19;;;;;;;1999.90;999.90;;;;;;;1.23;100.00;99255.22;5054558;28;20032;-82
2022/11/27 02:28:03;;;;;;;1999.90;999.90;;;;;;;1.36;100.00;99260.66;5058417;28;20024;-86
2022/11/27 02:30:35;;;;;;;1999.90;999.90;;;;;;;1.23;100.00;99244.44;5059534;28;20075;-82
2022/11/27 02:33:09;;;;;;;1999.90;999.90;;;;;;;1.28;100.00;99258.16;5059023;28;20096;-85
2022/11/27 02:35:42;;;;;;;1999.90;999.90;;;;;;;1.35;100.00;99267.06;5057045;28;20385;-84
2022/11/27 02:38:14;;;;;;;1999.90;999.90;;;;;;;1.33;100.00;99244.91;5058605;28;20466;-87
2022/11/27 02:41:04;;;;;;;1999.90;999.90;;;;;;;1.31;100.00;99255.91;5058239;28;20025;-87
2022/11/27 02:43:35;;;;;;;1999.90;999.90;;;;;;;1.37;100.00;99240.75;5059103;28;20064;-86
2022/11/27 02:46:02;;;;;;;1999.90;999.90;;;;;;;1.28;100.00;99232.06;5060412;28;20534;-85
2022/11/27 02:48:35;;;;;;;1999.90;999.90;;;;;;;1.25;100.00;99242.41;5060315;28;20033;-86
2022/11/27 02:51:03;;;;;;;1999.90;999.90;;;;;;;1.14;100.00;99227.66;5059012;28;20013;-83
2022/11/27 02:53:37;;;;;;;1999.90;999.90;;;;;;;1.13;100.00;99238.66;5060011;28;20031;-82
2022/11/27 02:56:07;;;;;;;1999.90;999.90;;;;;;;1.21;100.00;99236.59;5059969;28;20017;-85
2022/11/27 02:58:35;;;;;;;1999.90;999.90;;;;;;;1.19;100.00;99232.44;5059965;28;21788;-85
2022/11/27 03:01:04;;;;;;;1999.90;999.90;;;;;;;1.24;100.00;99229.97;5060539;28;20025;-82
2022/11/27 03:03:35;;;;;;;1999.90;999.90;;;;;;;1.21;100.00;99235.75;5058850;28;20065;-84
2022/11/27 03:06:06;;;;;;;1999.90;999.90;;;;;;;1.20;100.00;99234.09;5057686;28;20056;-84
2022/11/27 03:08:38;;;;;;;1999.90;999.90;;;;;;;1.18;100.00;99225.38;5054937;28;20027;-84
2022/11/27 03:11:10;;;;;;;1999.90;999.90;;;;;;;1.34;100.00;99219.63;5060130;28;20029;-85
2022/11/27 03:13:39;;;;;;;1999.90;999.90;;;;;;;1.39;100.00;99217.97;5063109;28;20108;-83
2022/11/27 03:16:19;;;;;;;1999.90;999.90;;;;;;;1.42;100.00;99216.72;5061071;28;20036;-84
2022/11/27 03:19:32;;;;;;;1999.90;999.90;;;;;;;1.46;100.00;99220.66;5059678;28;20021;-88
2022/11/27 03:22:00;;;;;;;1999.90;999.90;;;;;;;1.29;100.00;99224.78;5037829;28;20033;-85
2022/11/27 03:24:28;;;;;;;1999.90;999.90;;;;;;;1.35;100.00;99215.88;5020039;28;20113;-84
2022/11/27 03:26:53;;;;;;;1999.90;999.90;;;;;;;1.26;100.00;99204.47;5048648;28;20051;-84
2022/11/27 03:29:28;;;;;;;1999.90;999.90;;;;;;;1.20;100.00;99216.06;5057067;28;20029;-84
2022/11/27 03:31:55;;;;;;;1999.90;999.90;;;;;;;1.22;100.00;99207.78;5058535;28;20474;-85
2022/11/27 03:34:21;;;;;;;1999.90;999.90;;;;;;;1.31;100.00;99206.56;5058093;28;20548;-86
2022/11/27 03:36:46;;;;;;;1999.90;999.90;;;;;;;1.36;100.00;99206.75;5058068;28;20033;-85
2022/11/27 03:39:12;;;;;;;1999.90;999.90;;;;;;;1.28;100.00;99213.19;5058993;28;20088;-84
2022/11/27 03:41:53;;;;;;;1999.90;999.90;;;;;;;1.22;100.00;99207.78;5058098;28;20082;-82
2022/11/27 03:44:31;;;;;;;1999.90;999.90;;;;;;;1.36;100.00;99212.97;5056316;28;20021;-80
2022/11/27 03:46:59;;;;;;;1999.90;999.90;;;;;;;1.28;100.00;99213.19;5054050;28;20416;-86
2022/11/27 03:49:24;;;;;;;1999.90;999.90;;;;;;;1.32;100.00;99208.19;5038048;28;20033;-86
2022/11/27 03:51:55;;;;;;;1999.90;999.90;;;;;;;1.33;100.00;99207.16;5040466;28;20017;-84
2022/11/27 03:54:26;;;;;;;1999.90;999.90;;;;;;;1.35;100.00;99208.63;5056943;28;20036;-86
2022/11/27 03:57:03;;;;;;;1999.90;999.90;;;;;;;1.36;100.00;99204.06;5057962;28;20029;-84
2022/11/27 03:59:33;;;;;;;1999.90;999.90;;;;;;;1.31;100.00;99202.00;5056875;28;20028;-84
2022/11/27 04:01:58;;;;;;;1999.90;999.90;;;;;;;1.37;100.00;99197.66;5057045;28;20029;-85
2022/11/27 04:04:23;;;;;;;1999.90;999.90;;;;;;;1.40;100.00;99205.31;5049862;28;20049;-85
2022/11/27 04:06:49;;;;;;;1999.90;999.90;;;;;;;1.31;100.00;99196.63;5038286;28;20108;-84
2022/11/27 04:09:14;;;;;;;1999.90;999.90;;;;;;;1.30;100.00;99203.03;5039275;28;20064;-87
2022/11/27 04:11:39;;;;;;;1999.90;999.90;;;;;;;1.26;100.00;99201.78;5057932;28;20029;-81
2022/11/27 04:14:05;;;;;;;1999.90;999.90;;;;;;;1.28;100.00;99202.41;5057415;28;20033;-85
2022/11/27 04:16:30;;;;;;;1999.90;999.90;;;;;;;1.26;100.00;99206.31;5056659;28;20438;-84
2022/11/27 04:18:55;;;;;;;1999.90;999.90;;;;;;;1.33;100.00;99226.03;5054997;28;20050;-83
2022/11/27 04:21:21;;;;;;;1999.90;999.90;;;;;;;1.29;100.00;99225.59;5057272;28;20051;-84
2022/11/27 04:23:46;;;;;;;1999.90;999.90;;;;;;;1.37;100.00;99221.91;5056173;28;20068;-84
2022/11/27 04:26:12;;;;;;;1999.90;999.90;;;;;;;1.39;100.00;99217.13;5056713;28;20027;-82
2022/11/27 04:28:37;;;;;;;1999.90;999.90;;;;;;;1.41;100.00;99223.97;5056582;28;20036;-84
2022/11/27 04:31:03;;;;;;;1999.90;999.90;;;;;;;1.34;100.00;99206.97;5057690;28;20029;-84
2022/11/27 04:33:28;;;;;;;1999.90;999.90;;;;;;;1.22;100.00;99203.22;5057635;28;20037;-86
2022/11/27 04:35:54;;;;;;;1999.90;999.90;;;;;;;1.28;100.00;99205.09;5055940;28;20037;-85
2022/11/27 04:38:20;;;;;;;1999.90;999.90;;;;;;;1.27;100.00;99197.22;5055825;28;20025;-85
2022/11/27 04:40:45;;;;;;;1999.90;999.90;;;;;;;1.31;100.00;99188.53;5056359;28;20032;-85
2022/11/27 04:43:11;;;;;;;1999.90;999.90;;;;;;;1.34;100.00;99195.38;5057776;28;20025;-88
2022/11/27 04:45:37;;;;;;;1999.90;999.90;;;;;;;1.31;100.00;99196.63;5057209;28;20036;-80
2022/11/27 04:48:03;;;;;;;1999.90;999.90;;;;;;;1.31;100.00;99193.91;5056305;28;20417;-83
2022/11/27 04:50:28;;;;;;;1999.90;999.90;;;;;;;1.42;100.00;99197.84;5056410;28;20075;-87
2022/11/27 04:52:54;;;;;;;1999.90;999.90;;;;;;;1.45;100.00;99202.81;5056573;28;20115;-85
2022/11/27 04:55:19;;;;;;;1999.90;999.90;;;;;;;1.47;100.00;99198.09;5054937;28;20021;-85
2022/11/27 04:57:44;;;;;;;1999.90;999.90;;;;;;;1.38;100.00;99202.00;5056246;28;20548;-86
2022/11/27 05:00:10;;;;;;;1999.90;999.90;;;;;;;1.24;100.00;99192.22;5058728;28;20025;-88
2022/11/27 05:02:36;;;;;;;1999.90;999.90;;;;;;;1.21;100.00;99201.56;5057880;28;20040;-81
2022/11/27 05:05:01;;;;;;;1999.90;999.90;;;;;;;1.12;100.00;99189.31;5056725;28;20127;-86
2022/11/27 05:07:28;;;;;;;1999.90;999.90;;;;;;;1.20;100.00;99205.28;5057486;28;20048;-84
2022/11/27 05:09:53;;;;;;;1999.90;999.90;;;;;;;1.14;100.00;99197.19;5057990;28;20037;-86
2022/11/27 05:12:19;;;;;;;1999.90;999.90;;;;;;;1.31;100.00;99204.69;5055524;28;20033;-86
2022/11/27 05:14:44;;;;;;;1999.90;999.90;;;;;;;1.29;100.00;99200.53;5054437;28;20024;-85
2022/11/27 05:17:10;;;;;;;1999.90;999.90;;;;;;;1.43;100.00;99210.31;5055328;28;20020;-85
2022/11/27 05:19:35;;;;;;;1999.90;999.90;;;;;;;1.43;100.00;99203.03;5060704;28;20089;-84
2022/11/27 05:22:01;;;;;;;1999.90;999.90;;;;;;;1.43;100.00;99194.97;5056433;28;20074;-83
2022/11/27 05:24:28;;;;;;;1999.90;999.90;;;;;;;1.46;100.00;99201.81;5055284;28;20056;-86
2022/11/27 05:26:54;;;;;;;1999.90;999.90;;;;;;;1.39;100.00;99214.44;5057006;28;20040;-86
2022/11/27 05:29:21;;;;;;;1999.90;999.90;;;;;;;1.32;100.00;99205.50;5063393;28;20117;-84
2022/11/27 05:31:46;;;;;;;1999.90;999.90;;;;;;;1.30;100.00;99191.41;5057101;28;20067;-84
2022/11/27 05:34:12;;;;;;;1999.90;999.90;;;;;;;1.24;100.00;99190.38;5057068;28;20025;-83
2022/11/27 05:36:38;;;;;;;1999.90;999.90;;;;;;;1.18;100.00;99184.97;5056650;28;20021;-86
2022/11/27 05:39:05;;;;;;;1999.90;999.90;;;;;;;1.25;100.00;99193.91;5037550;28;20025;-82
2022/11/27 05:41:32;;;;;;;1999.90;999.90;;;;;;;1.20;100.00;99191.81;5059152;28;20028;-86
2022/11/27 05:43:57;;;;;;;1999.90;999.90;;;;;;;1.18;100.00;99187.66;5062754;28;20021;-85
2022/11/27 05:46:22;;;;;;;1999.90;999.90;;;;;;;1.22;100.00;99199.72;5064667;28;20120;-84
2022/11/27 05:48:48;;;;;;;1999.90;999.90;;;;;;;1.15;100.00;99193.47;5062259;28;20060;-86
2022/11/27 05:51:15;;;;;;;1999.90;999.90;;;;;;;1.23;100.00;99191.41;5060602;28;20021;-87
2022/11/27 05:53:40;;;;;;;1999.90;999.90;;;;;;;1.28;100.00;99204.28;5056863;28;20074;-84
2022/11/27 05:56:08;;;;;;;1999.90;999.90;;;;;;;1.35;100.00;99202.41;5057233;28;20115;-84
2022/11/27 05:58:35;;;;;;;1999.90;999.90;;;;;;;1.24;100.00;99208.41;5057507;28;20060;-86
2022/11/27 06:01:01;;;;;;;1999.90;999.90;;;;;;;1.23;100.00;99217.50;5062733;28;20044;-84
2022/11/27 06:03:26;;;;;;;1999.90;999.90;;;;;;;1.30;100.00;99202.19;5064105;28;20025;-85
2022/11/27 06:05:52;;;;;;;1999.90;999.90;;;;;;;1.23;100.00;99210.25;5061359;28;20052;-86
2022/11/27 06:08:18;;;;;;;1999.90;999.90;;;;;;;1.31;100.00;99206.56;5061184;28;20045;-86
2022/11/27 06:10:44;;;;;;;1999.90;999.90;;;;;;;1.20;100.00;99210.66;5061314;28;20037;-84
2022/11/27 06:13:09;;;;;;;1999.90;999.90;;;;;;;1.02;100.00;99197.78;5063937;28;20025;-83
2022/11/27 06:15:37;;;;;;;1999.90;999.90;;;;;;;1.07;100.00;99222.25;5061186;28;20102;-85
2022/11/27 06:18:02;;;;;;;1999.90;999.90;;;;;;;1.07;100.00;99213.34;5060743;28;20124;-85
2022/11/27 06:20:27;;;;;;;1999.90;999.90;;;;;;;1.04;100.00;99214.56;5060547;28;20106;-84
2022/11/27 06:22:54;;;;;;;1999.90;999.90;;;;;;;1.12;100.00;99220.81;5060034;28;20031;-86
2022/11/27 06:25:19;;;;;;;1999.90;999.90;;;;;;;1.08;100.00;99215.84;5060527;28;20110;-85
2022/11/27 06:27:45;;;;;;;1999.90;999.90;;;;;;;1.11;100.00;99219.16;5058630;28;20979;-85
2022/11/27 06:30:10;;;;;;;1999.90;999.90;;;;;;;1.19;100.00;99218.97;5058386;28;20033;-88
2022/11/27 06:32:36;;;;;;;1999.90;999.90;;;;;;;1.10;100.00;99218.31;5058478;28;20123;-83
2022/11/27 06:35:01;;;;;;;1999.90;999.90;;;;;;;1.15;100.00;99223.09;5057607;28;20031;-81
2022/11/27 06:37:27;;;;;;;1999.90;999.90;;;;;;;1.20;100.00;99228.69;5057590;28;20040;-83
2022/11/27 06:39:52;;;;;;;1999.90;999.90;;;;;;;1.17;100.00;99234.50;5057434;28;20086;-82
2022/11/27 06:42:17;;;;;;;1999.90;999.90;;;;;;;1.24;100.00;99229.97;5056818;28;20033;-85
2022/11/27 06:44:43;;;;;;;1999.90;999.90;;;;;;;1.20;100.00;99234.09;5057105;28;20079;-87
2022/11/27 06:47:08;;;;;;;1999.90;999.90;;;;;;;1.32;100.00;99216.28;5058476;28;20017;-83
2022/11/27 06:49:34;;;;;;;1999.90;999.90;;;;;;;1.29;100.00;99222.09;5059899;28;20480;-83
2022/11/27 06:52:05;;;;;;;1999.90;999.90;;;;;;;1.42;100.00;99228.31;5060372;28;20027;-84
2022/11/27 06:54:30;;;;;;;1999.90;999.90;;;;;;;1.53;100.00;99245.78;5059355;28;20033;-86
2022/11/27 06:56:57;;;;;;;1999.90;999.90;;;;;;;1.49;100.00;99220.25;5055776;28;20075;-84
2022/11/27 06:59:23;;;;;;;1999.90;999.90;;;;;;;1.61;100.00;99227.53;5056572;28;20089;-84
2022/11/27 07:01:48;;;;;;;1999.90;999.90;;;;;;;1.51;100.00;99237.03;5060838;28;20053;-87
2022/11/27 07:04:14;;;;;;;1999.90;999.90;;;;;;;1.47;100.00;99227.72;5060891;28;20527;-83
2022/11/27 07:06:40;;;;;;;1999.90;999.90;;;;;;;1.49;100.00;99228.34;5061521;28;20037;-83
2022/11/27 07:09:07;;;;;;;1999.90;999.90;;;;;;;1.41;100.00;99217.78;5057322;28;20032;-85
2022/11/27 07:11:33;;;;;;;1999.90;999.90;;;;;;;1.42;100.00;99222.94;5057392;28;20021;-85
2022/11/27 07:14:03;;;;;;;1999.90;999.90;;;;;;;1.66;100.00;99229.59;5059582;28;20028;-84
2022/11/27 07:16:32;;;;;;;1999.90;999.90;;;;;;;1.67;100.00;99233.94;5060596;28;20032;-87
2022/11/27 07:19:01;;;;;;;1999.90;999.90;;;;;;;1.55;100.00;99230.22;5059965;28;20028;-85
2022/11/27 07:21:29;;;;;;;1999.90;999.90;;;;;;;1.45;100.00;99225.22;5065028;28;20032;-83
2022/11/27 07:23:59;;;;;;;1999.90;999.90;;;;;;;1.33;100.00;99217.94;5063275;28;20028;-85
2022/11/27 07:26:27;;;;;;;1999.90;999.90;;;;;;;1.45;100.00;99225.22;5063780;28;20123;-86
2022/11/27 07:28:55;;;;;;;1999.90;999.90;;;;;;;1.60;100.00;99233.09;5065137;28;20470;-86
2022/11/27 07:31:25;;;;;;;1999.90;999.90;;;;;;;1.65;100.00;99227.09;5060030;28;20031;-86
2022/11/27 07:33:51;;;;;;;1999.90;999.90;;;;;;;1.63;100.00;99224.59;5056404;28;20060;-88
2022/11/27 07:36:28;;;;;;;1999.90;999.90;;;;;;;1.76;100.00;99230.00;5050609;28;20025;-89
2022/11/27 07:38:53;;;;;;;1999.90;999.90;;;;;;;1.75;100.00;99228.38;5060640;28;20036;-86
2022/11/27 07:41:19;;;;;;;1999.90;999.90;;;;;;;1.80;100.00;99242.06;5045265;28;20033;-86
2022/11/27 07:43:45;;;;;;;1999.90;999.90;;;;;;;1.81;100.00;99235.63;5075534;28;20029;-88
2022/11/27 07:46:13;;;;;;;1999.90;999.90;;;;;;;1.79;100.00;99234.97;5042745;28;20040;-86
2022/11/27 07:48:39;;;;;;;1999.90;999.90;;;;;;;1.64;100.00;99220.88;5040301;28;20079;-83
2022/11/27 07:51:06;;;;;;;1999.90;999.90;;;;;;;1.83;100.00;99230.84;5049747;28;20471;-86
2022/11/27 07:53:34;;;;;;;1999.90;999.90;;;;;;;1.91;100.00;99232.50;5062945;28;20036;-85
2022/11/27 07:55:59;;;;;;;1999.90;999.90;;;;;;;1.84;100.00;99232.50;5069483;28;20039;-86
2022/11/27 07:58:24;;;;;;;1999.90;999.90;;;;;;;1.83;100.00;99230.84;5059099;28;20029;-85
2022/11/27 08:00:50;;;;;;;1999.90;999.90;;;;;;;1.85;100.00;99217.97;5047914;28;20458;-84
2022/11/27 08:03:15;;;;;;;1999.90;999.90;;;;;;;1.82;100.00;99223.78;5047366;28;20024;-81
2022/11/27 08:05:41;;;;;;;1999.90;999.90;;;;;;;1.81;100.00;99227.53;5069463;28;20044;-89
2022/11/27 08:08:07;;;;;;;1999.90;999.90;;;;;;;1.99;100.00;99224.19;5069461;28;20048;-86
2022/11/27 08:10:36;;;;;;;1999.90;999.90;;;;;;;2.09;100.00;99222.75;5066281;28;20032;-84
2022/11/27 08:13:02;;;;;;;1999.90;999.90;;;;;;;1.99;100.00;99208.84;5063256;28;20032;-85
2022/11/27 08:15:27;;;;;;;1999.90;999.90;;;;;;;2.08;100.00;99225.63;5062338;28;20050;-85
2022/11/27 08:17:52;;;;;;;1999.90;999.90;;;;;;;2.08;100.00;99223.78;5068216;28;20385;-86
2022/11/27 08:20:18;;;;;;;1999.90;999.90;;;;;;;2.01;100.00;99217.53;5069339;28;20020;-85
2022/11/27 08:22:44;;;;;;;1999.90;999.90;;;;;;;2.05;100.00;99223.34;5066956;28;20028;-89
2022/11/27 08:25:10;;;;;;;1999.90;999.90;;;;;;;2.08;100.00;99241.81;5067589;28;20044;-85
2022/11/27 08:27:35;;;;;;;1999.90;999.90;;;;;;;2.12;100.00;99230.41;5058756;28;20017;-83
2022/11/27 08:30:00;;;;;;;1999.90;999.90;;;;;;;2.17;100.00;99222.50;5054658;28;20147;-86
2022/11/27 08:32:26;;;;;;;1999.90;999.90;;;;;;;2.10;100.00;99218.97;5057258;28;20032;-85
2022/11/27 08:34:51;;;;;;;1999.90;999.90;;;;;;;2.12;100.00;99230.41;5057601;28;20017;-85
2022/11/27 08:37:17;;;;;;;1999.90;999.90;;;;;;;2.24;100.00;99218.97;5059269;28;20048;-84
2022/11/27 08:39:42;;;;;;;1999.90;999.90;;;;;;;2.30;100.00;99215.44;5061337;28;20048;-85
2022/11/27 08:42:07;;;;;;;1999.90;999.90;;;;;;;2.49;100.00;99219.94;5065004;28;20052;-77
2022/11/27 08:44:33;;;;;;;1999.90;999.90;;;;;;;2.58;100.00;99226.78;5049880;28;20029;-79
2022/11/27 08:46:58;;;;;;;1999.90;999.90;;;;;;;2.60;100.00;99219.31;5050018;28;20040;-78
2022/11/27 08:49:23;;;;;;;1999.90;999.90;;;;;;;2.63;100.00;99219.69;5050137;28;20033;-80
2022/11/27 08:51:49;;;;;;;1999.90;999.90;;;;;;;2.64;100.00;99223.22;5050261;28;20022;-79
2022/11/27 08:54:14;;;;;;;1999.90;999.90;;;;;;;2.64;100.00;99228.63;5050091;28;20035;-78
2022/11/27 08:56:40;;;;;;;1999.90;999.90;;;;;;;2.50;100.00;99225.16;5052735;28;20029;-79
2022/11/27 08:59:05;;;;;;;1999.90;999.90;;;;;;;2.61;100.00;99229.88;5050417;28;20426;-77
2022/11/27 09:01:31;;;;;;;1999.90;999.90;;;;;;;2.88;100.00;99237.91;5050628;28;20028;-77
2022/11/27 09:03:57;;;;;;;1999.90;999.90;;;;;;;3.00;100.00;99231.59;5050590;28;20116;-78
2022/11/27 09:06:27;;;;;;;1999.90;999.90;;;;;;;2.66;100.00;99237.34;5051009;28;20397;-79
2022/11/27 09:08:58;;;;;;;1999.90;999.90;;;;;;;2.37;100.00;99229.75;5047106;28;20029;-77
2022/11/27 09:11:24;;;;;;;1999.90;999.90;;;;;;;2.18;100.00;99204.44;5048510;28;20024;-85
2022/11/27 09:13:49;;;;;;;1999.90;999.90;;;;;;;2.33;100.00;99220.41;5048967;28;20088;-86
2022/11/27 09:16:18;;;;;;;1999.90;999.90;;;;;;;2.86;100.00;99221.88;5049731;28;20101;-79
2022/11/27 09:18:46;;;;;;;1999.90;999.90;;;;;;;3.13;100.00;99226.09;5049577;28;20663;-77
2022/11/27 09:21:12;;;;;;;1999.90;999.90;;;;;;;3.39;100.00;99224.28;5050895;28;20033;-78
2022/11/27 09:23:39;;;;;;;1999.90;999.90;;;;;;;3.50;100.00;99221.75;5048258;28;20414;-81
2022/11/27 09:26:13;;;;;;;1999.90;999.90;;;;;;;3.47;100.00;99218.63;5051866;28;20099;-82
2022/11/27 09:28:39;;;;;;;1999.90;999.90;;;;;;;3.54;100.00;99214.81;5062420;28;20025;-81
2022/11/27 09:31:07;;;;;;;1999.90;999.90;;;;;;;3.57;100.00;99219.00;5050323;28;20481;-81
2022/11/27 09:33:35;;;;;;;1999.90;999.90;;;;;;;3.79;100.00;99218.38;5054138;28;20082;-80
2022/11/27 09:36:09;;;;;;;1999.90;999.90;;;;;;;4.17;100.00;99209.28;5060642;28;20051;-80
2022/11/27 09:38:34;;;;;;;1999.90;999.90;;;;;;;4.56;100.00;99208.91;5054209;28;20021;-79
2022/11/27 09:41:18;;;;;;;1999.90;999.90;;;;;;;4.64;100.00;99210.47;5054328;28;20029;-77
2022/11/27 09:43:58;;;;;;;1999.90;999.90;;;;;;;4.71;100.00;99201.22;5053455;28;20037;-78
2022/11/27 09:46:38;;;;;;;1999.90;999.90;;;;;;;5.17;100.00;99211.44;5054458;28;20409;-76
2022/11/27 09:49:07;;;;;;;1999.90;999.90;;;;;;;4.85;100.00;99208.09;5056302;28;20044;-78
2022/11/27 09:51:46;;;;;;;1999.90;999.90;;;;;;;4.65;100.00;99204.81;5054465;28;20525;-77
2022/11/27 09:54:21;;;;;;;1999.90;999.90;;;;;;;4.88;100.00;99206.84;5050697;28;20032;-77
2022/11/27 09:56:52;;;;;;;1999.90;999.90;;;;;;;5.03;100.00;99201.03;5048764;28;20024;-77
2022/11/27 09:59:21;;;;;;;1999.90;999.90;;;;;;;5.07;100.00;99211.19;5051871;28;20078;-79
2022/11/27 10:01:47;;;;;;;1999.90;999.90;;;;;;;5.24;100.00;99190.50;5052917;28;20110;-76
2022/11/27 10:04:15;;;;;;;1999.90;999.90;;;;;;;5.13;100.00;99193.16;5052004;28;20049;-77
2022/11/27 10:06:40;;;;;;;1999.90;999.90;;;;;;;5.35;100.00;99191.59;5053546;28;20464;-79
2022/11/27 10:09:08;;;;;;;1999.90;999.90;;;;;;;5.64;100.00;99189.91;5050744;28;20021;-80
2022/11/27 10:11:46;;;;;;;1999.90;999.90;;;;;;;5.60;100.00;99188.72;5054085;28;20017;-80
2022/11/27 10:14:37;;;;;;;1999.90;999.90;;;;;;;5.35;100.00;99176.16;5050084;28;20036;-78
2022/11/27 10:17:28;;;;;;;1999.90;999.90;;;;;;;5.61;100.00;99168.63;5044351;28;20049;-77
2022/11/27 10:20:22;;;;;;;1999.90;999.90;;;;;;;5.90;100.00;99165.06;5052686;28;20025;-77
2022/11/27 10:23:14;;;;;;;1999.90;999.90;;;;;;;6.81;100.00;99164.34;5052362;28;20029;-77
2022/11/27 10:25:49;;;;;;;1999.90;999.90;;;;;;;7.19;100.00;99156.41;5049126;28;20500;-84
2022/11/27 10:29:09;;;;;;;1999.90;999.90;;;;;;;8.37;100.00;99153.47;5049880;28;20037;-79
2022/11/27 10:31:49;;;;;;;1999.90;999.90;;;;;;;9.82;100.00;99149.06;5027813;28;20048;-76
2022/11/27 10:34:23;;;;;;;1999.90;999.90;;;;;;;10.19;100.00;99139.81;5043839;28;20037;-82
2022/11/27 10:36:51;;;;;;;1999.90;999.90;;;;;;;10.54;100.00;99152.88;5076152;28;20457;-79
2022/11/27 10:39:25;;;;;;;1999.90;999.90;;;;;;;11.46;100.00;99138.41;5050951;28;20047;-81
2022/11/27 10:41:58;;;;;;;1999.90;999.90;;;;;;;11.57;97.24;99131.84;5047215;28;20024;-87
2022/11/27 10:44:33;;;;;;;1999.90;999.90;;;;;;;11.59;94.32;99137.88;5056943;28;20094;-84
2022/11/27 10:47:03;;;;;;;;;;;;;;;11.46;95.56;99126.63;5050795;28;20037;-79
2022/11/27 10:49:29;;;;;;;1999.90;999.90;;;;;;;11.48;94.67;99114.31;5050832;28;20010;-81
2022/11/27 10:51:55;;;;;;;1999.90;999.90;;;;;;;11.27;94.26;99107.16;5051236;28;20025;-82
2022/11/27 10:54:31;;;;;;;1999.90;999.90;;;;;;;11.95;90.17;99107.75;5051798;28;20020;-78
2022/11/27 10:57:17;;;;;;;1999.90;999.90;;;;;;;12.08;89.58;99109.94;5047741;28;20516;-77
2022/11/27 11:00:04;;;;;;;1999.90;999.90;;;;;;;11.67;91.09;99101.72;5047177;28;20056;-78
2022/11/27 11:02:38;;;;;;;1999.90;999.90;;;;;;;11.89;89.00;99100.63;5041048;28;20025;-78